sensor_id;sensor_type;location;lat;lon;timestamp;P1;durP1;ratioP1;P2;durP2;ratioP2
77466;SDS011;66564;42.482;25.548;2023-04-23T00:00:08;6.97;;;4.28;;
77466;SDS011;66564;42.482;25.548;2023-04-23T00:02:37;11.32;;;4.82;;
77466;SDS011;66564;42.482;25.548;2023-04-23T00:05:04;8.13;;;4.63;;
77466;SDS011;66564;42.482;25.548;2023-04-23T00:07:31;8.02;;;3.97;;
77466;SDS011;66564;42.482;25.548;2023-04-23T00:09:57;11.60;;;4.53;;
77466;SDS011;66564;42.482;25.548;2023-04-23T00:12:25;8.45;;;4.45;;
77466;SDS011;66564;42.482;25.548;2023-04-23T00:14:51;8.35;;;4.43;;
77466;SDS011;66564;42.482;25.548;2023-04-23T00:17:17;8.00;;;4.90;;
77466;SDS011;66564;42.482;25.548;2023-04-23T00:19:43;12.15;;;4.35;;
77466;SDS011;66564;42.482;25.548;2023-04-23T00:22:09;10.10;;;4.13;;
77466;SDS011;66564;42.482;25.548;2023-04-23T00:24:34;12.20;;;4.95;;
77466;SDS011;66564;42.482;25.548;2023-04-23T00:27:02;11.93;;;3.75;;
77466;SDS011;66564;42.482;25.548;2023-04-23T00:29:28;4.93;;;4.03;;
77466;SDS011;66564;42.482;25.548;2023-04-23T00:31:54;7.78;;;3.92;;
77466;SDS011;66564;42.482;25.548;2023-04-23T00:34:19;9.63;;;3.72;;
77466;SDS011;66564;42.482;25.548;2023-04-23T00:36:45;12.10;;;3.92;;
77466;SDS011;66564;42.482;25.548;2023-04-23T00:39:10;10.27;;;4.15;;
77466;SDS011;66564;42.482;25.548;2023-04-23T00:41:36;8.15;;;3.90;;
77466;SDS011;66564;42.482;25.548;2023-04-23T00:44:01;9.68;;;4.35;;
77466;SDS011;66564;42.482;25.548;2023-04-23T00:46:27;6.05;;;3.50;;
77466;SDS011;66564;42.482;25.548;2023-04-23T00:48:53;6.63;;;3.45;;
77466;SDS011;66564;42.482;25.548;2023-04-23T00:51:20;10.10;;;3.72;;
77466;SDS011;66564;42.482;25.548;2023-04-23T00:53:47;11.65;;;4.78;;
77466;SDS011;66564;42.482;25.548;2023-04-23T00:56:13;6.20;;;3.85;;
77466;SDS011;66564;42.482;25.548;2023-04-23T00:58:39;11.40;;;5.82;;
77466;SDS011;66564;42.482;25.548;2023-04-23T01:01:05;4.47;;;3.13;;
77466;SDS011;66564;42.482;25.548;2023-04-23T01:03:31;7.93;;;3.17;;
77466;SDS011;66564;42.482;25.548;2023-04-23T01:06:00;8.88;;;4.20;;
77466;SDS011;66564;42.482;25.548;2023-04-23T01:08:27;5.70;;;3.55;;
77466;SDS011;66564;42.482;25.548;2023-04-23T01:10:53;5.88;;;3.42;;
77466;SDS011;66564;42.482;25.548;2023-04-23T01:13:19;7.85;;;3.70;;
77466;SDS011;66564;42.482;25.548;2023-04-23T01:15:46;6.45;;;3.63;;
77466;SDS011;66564;42.482;25.548;2023-04-23T01:18:11;6.15;;;3.35;;
77466;SDS011;66564;42.482;25.548;2023-04-23T01:20:39;12.63;;;5.18;;
77466;SDS011;66564;42.482;25.548;2023-04-23T01:23:05;9.48;;;3.50;;
77466;SDS011;66564;42.482;25.548;2023-04-23T01:25:31;5.22;;;3.17;;
77466;SDS011;66564;42.482;25.548;2023-04-23T01:27:57;12.18;;;3.67;;
77466;SDS011;66564;42.482;25.548;2023-04-23T01:30:23;8.20;;;3.60;;
77466;SDS011;66564;42.482;25.548;2023-04-23T01:32:51;6.78;;;3.35;;
77466;SDS011;66564;42.482;25.548;2023-04-23T01:35:18;9.38;;;3.92;;
77466;SDS011;66564;42.482;25.548;2023-04-23T01:37:44;7.68;;;3.45;;
77466;SDS011;66564;42.482;25.548;2023-04-23T01:40:11;10.60;;;3.75;;
77466;SDS011;66564;42.482;25.548;2023-04-23T01:42:37;10.52;;;3.42;;
77466;SDS011;66564;42.482;25.548;2023-04-23T01:45:03;6.97;;;3.75;;
77466;SDS011;66564;42.482;25.548;2023-04-23T01:47:29;9.20;;;3.22;;
77466;SDS011;66564;42.482;25.548;2023-04-23T01:49:54;10.25;;;3.88;;
77466;SDS011;66564;42.482;25.548;2023-04-23T01:52:20;6.57;;;3.30;;
77466;SDS011;66564;42.482;25.548;2023-04-23T01:54:45;10.57;;;3.42;;
77466;SDS011;66564;42.482;25.548;2023-04-23T01:57:12;5.85;;;3.47;;
77466;SDS011;66564;42.482;25.548;2023-04-23T01:59:37;9.68;;;4.40;;
77466;SDS011;66564;42.482;25.548;2023-04-23T02:02:04;8.48;;;3.90;;
77466;SDS011;66564;42.482;25.548;2023-04-23T02:04:34;7.00;;;3.30;;
77466;SDS011;66564;42.482;25.548;2023-04-23T02:07:00;6.72;;;3.55;;
77466;SDS011;66564;42.482;25.548;2023-04-23T02:09:26;10.18;;;3.83;;
77466;SDS011;66564;42.482;25.548;2023-04-23T02:11:52;8.50;;;3.10;;
77466;SDS011;66564;42.482;25.548;2023-04-23T02:14:17;6.65;;;3.70;;
77466;SDS011;66564;42.482;25.548;2023-04-23T02:16:43;10.57;;;4.22;;
77466;SDS011;66564;42.482;25.548;2023-04-23T02:19:09;8.77;;;3.60;;
77466;SDS011;66564;42.482;25.548;2023-04-23T02:21:35;7.35;;;3.40;;
77466;SDS011;66564;42.482;25.548;2023-04-23T02:24:00;7.28;;;3.53;;
77466;SDS011;66564;42.482;25.548;2023-04-23T02:26:26;7.82;;;3.03;;
77466;SDS011;66564;42.482;25.548;2023-04-23T02:28:53;7.03;;;3.72;;
77466;SDS011;66564;42.482;25.548;2023-04-23T02:31:18;11.73;;;3.60;;
77466;SDS011;66564;42.482;25.548;2023-04-23T02:33:44;7.22;;;3.58;;
77466;SDS011;66564;42.482;25.548;2023-04-23T02:36:11;9.68;;;4.15;;
77466;SDS011;66564;42.482;25.548;2023-04-23T02:38:36;5.95;;;3.50;;
77466;SDS011;66564;42.482;25.548;2023-04-23T02:41:05;6.93;;;3.80;;
77466;SDS011;66564;42.482;25.548;2023-04-23T02:43:31;11.88;;;3.60;;
77466;SDS011;66564;42.482;25.548;2023-04-23T02:45:56;5.65;;;3.40;;
77466;SDS011;66564;42.482;25.548;2023-04-23T02:48:22;5.60;;;3.25;;
77466;SDS011;66564;42.482;25.548;2023-04-23T02:50:47;5.40;;;3.30;;
77466;SDS011;66564;42.482;25.548;2023-04-23T02:53:13;4.53;;;2.97;;
77466;SDS011;66564;42.482;25.548;2023-04-23T02:55:39;7.68;;;3.97;;
77466;SDS011;66564;42.482;25.548;2023-04-23T02:58:04;6.75;;;3.15;;
77466;SDS011;66564;42.482;25.548;2023-04-23T03:00:30;5.57;;;3.45;;
77466;SDS011;66564;42.482;25.548;2023-04-23T03:02:55;7.90;;;3.53;;
77466;SDS011;66564;42.482;25.548;2023-04-23T03:05:21;8.98;;;4.05;;
77466;SDS011;66564;42.482;25.548;2023-04-23T03:07:47;10.25;;;3.90;;
77466;SDS011;66564;42.482;25.548;2023-04-23T03:10:12;6.65;;;4.10;;
77466;SDS011;66564;42.482;25.548;2023-04-23T03:12:38;10.90;;;3.65;;
77466;SDS011;66564;42.482;25.548;2023-04-23T03:15:03;12.73;;;3.95;;
77466;SDS011;66564;42.482;25.548;2023-04-23T03:17:29;12.52;;;3.85;;
77466;SDS011;66564;42.482;25.548;2023-04-23T03:19:55;12.65;;;3.95;;
77466;SDS011;66564;42.482;25.548;2023-04-23T03:22:20;9.32;;;4.25;;
77466;SDS011;66564;42.482;25.548;2023-04-23T03:24:46;9.60;;;4.93;;
77466;SDS011;66564;42.482;25.548;2023-04-23T03:27:11;8.63;;;3.60;;
77466;SDS011;66564;42.482;25.548;2023-04-23T03:29:37;13.05;;;3.90;;
77466;SDS011;66564;42.482;25.548;2023-04-23T03:32:02;12.45;;;4.45;;
77466;SDS011;66564;42.482;25.548;2023-04-23T03:34:28;7.13;;;4.32;;
77466;SDS011;66564;42.482;25.548;2023-04-23T03:36:53;10.55;;;4.35;;
77466;SDS011;66564;42.482;25.548;2023-04-23T03:39:19;8.68;;;4.07;;
77466;SDS011;66564;42.482;25.548;2023-04-23T03:41:45;7.80;;;3.88;;
77466;SDS011;66564;42.482;25.548;2023-04-23T03:44:10;6.95;;;4.70;;
77466;SDS011;66564;42.482;25.548;2023-04-23T03:46:36;10.52;;;4.57;;
77466;SDS011;66564;42.482;25.548;2023-04-23T03:49:01;10.52;;;4.32;;
77466;SDS011;66564;42.482;25.548;2023-04-23T03:51:27;8.65;;;4.78;;
77466;SDS011;66564;42.482;25.548;2023-04-23T03:53:52;9.07;;;4.55;;
77466;SDS011;66564;42.482;25.548;2023-04-23T03:56:18;7.40;;;4.28;;
77466;SDS011;66564;42.482;25.548;2023-04-23T03:58:43;10.20;;;4.82;;
77466;SDS011;66564;42.482;25.548;2023-04-23T04:01:09;10.45;;;4.65;;
77466;SDS011;66564;42.482;25.548;2023-04-23T04:03:34;8.40;;;4.55;;
77466;SDS011;66564;42.482;25.548;2023-04-23T04:06:01;8.48;;;4.65;;
77466;SDS011;66564;42.482;25.548;2023-04-23T04:08:26;10.90;;;5.10;;
77466;SDS011;66564;42.482;25.548;2023-04-23T04:10:53;9.68;;;5.13;;
77466;SDS011;66564;42.482;25.548;2023-04-23T04:13:19;9.23;;;4.88;;
77466;SDS011;66564;42.482;25.548;2023-04-23T04:15:45;13.55;;;4.88;;
77466;SDS011;66564;42.482;25.548;2023-04-23T04:18:10;10.52;;;5.15;;
77466;SDS011;66564;42.482;25.548;2023-04-23T04:20:36;10.10;;;6.03;;
77466;SDS011;66564;42.482;25.548;2023-04-23T04:23:02;10.45;;;5.90;;
77466;SDS011;66564;42.482;25.548;2023-04-23T04:25:27;9.00;;;5.25;;
77466;SDS011;66564;42.482;25.548;2023-04-23T04:27:54;16.63;;;6.10;;
77466;SDS011;66564;42.482;25.548;2023-04-23T04:30:19;7.10;;;4.82;;
77466;SDS011;66564;42.482;25.548;2023-04-23T04:32:45;10.95;;;5.93;;
77466;SDS011;66564;42.482;25.548;2023-04-23T04:35:11;12.55;;;5.72;;
77466;SDS011;66564;42.482;25.548;2023-04-23T04:37:38;10.13;;;5.43;;
77466;SDS011;66564;42.482;25.548;2023-04-23T04:40:05;12.65;;;5.50;;
77466;SDS011;66564;42.482;25.548;2023-04-23T04:42:31;15.10;;;5.20;;
77466;SDS011;66564;42.482;25.548;2023-04-23T04:44:57;7.78;;;4.90;;
77466;SDS011;66564;42.482;25.548;2023-04-23T04:47:23;8.40;;;5.22;;
77466;SDS011;66564;42.482;25.548;2023-04-23T04:49:49;8.50;;;5.45;;
77466;SDS011;66564;42.482;25.548;2023-04-23T04:52:15;7.68;;;4.47;;
77466;SDS011;66564;42.482;25.548;2023-04-23T04:54:41;9.98;;;5.18;;
77466;SDS011;66564;42.482;25.548;2023-04-23T04:57:07;7.93;;;4.90;;
77466;SDS011;66564;42.482;25.548;2023-04-23T04:59:32;8.38;;;5.50;;
77466;SDS011;66564;42.482;25.548;2023-04-23T05:01:58;12.65;;;6.15;;
77466;SDS011;66564;42.482;25.548;2023-04-23T05:04:24;9.73;;;6.95;;
77466;SDS011;66564;42.482;25.548;2023-04-23T05:06:49;11.05;;;6.93;;
77466;SDS011;66564;42.482;25.548;2023-04-23T05:09:15;14.45;;;7.45;;
77466;SDS011;66564;42.482;25.548;2023-04-23T05:11:41;12.00;;;6.28;;
77466;SDS011;66564;42.482;25.548;2023-04-23T05:14:07;13.73;;;6.95;;
77466;SDS011;66564;42.482;25.548;2023-04-23T05:16:33;16.17;;;8.35;;
77466;SDS011;66564;42.482;25.548;2023-04-23T05:18:59;15.27;;;8.57;;
77466;SDS011;66564;42.482;25.548;2023-04-23T05:21:24;13.15;;;6.75;;
77466;SDS011;66564;42.482;25.548;2023-04-23T05:23:52;12.23;;;6.88;;
77466;SDS011;66564;42.482;25.548;2023-04-23T05:26:18;17.00;;;6.95;;
77466;SDS011;66564;42.482;25.548;2023-04-23T05:28:44;11.00;;;6.63;;
77466;SDS011;66564;42.482;25.548;2023-04-23T05:31:10;23.88;;;9.70;;
77466;SDS011;66564;42.482;25.548;2023-04-23T05:33:36;8.15;;;6.07;;
77466;SDS011;66564;42.482;25.548;2023-04-23T05:36:02;10.68;;;6.32;;
77466;SDS011;66564;42.482;25.548;2023-04-23T05:38:27;10.13;;;7.15;;
77466;SDS011;66564;42.482;25.548;2023-04-23T05:40:53;11.23;;;6.55;;
77466;SDS011;66564;42.482;25.548;2023-04-23T05:43:18;13.40;;;6.43;;
77466;SDS011;66564;42.482;25.548;2023-04-23T05:45:44;10.82;;;6.05;;
77466;SDS011;66564;42.482;25.548;2023-04-23T05:48:09;12.10;;;5.93;;
77466;SDS011;66564;42.482;25.548;2023-04-23T05:50:35;16.48;;;6.28;;
77466;SDS011;66564;42.482;25.548;2023-04-23T05:53:01;10.45;;;6.07;;
77466;SDS011;66564;42.482;25.548;2023-04-23T05:55:26;10.75;;;6.18;;
77466;SDS011;66564;42.482;25.548;2023-04-23T05:57:52;10.20;;;5.88;;
77466;SDS011;66564;42.482;25.548;2023-04-23T06:00:18;14.60;;;7.03;;
77466;SDS011;66564;42.482;25.548;2023-04-23T06:02:43;11.27;;;5.43;;
77466;SDS011;66564;42.482;25.548;2023-04-23T06:05:12;15.90;;;6.75;;
77466;SDS011;66564;42.482;25.548;2023-04-23T06:07:37;13.52;;;5.82;;
77466;SDS011;66564;42.482;25.548;2023-04-23T06:10:03;14.85;;;5.85;;
77466;SDS011;66564;42.482;25.548;2023-04-23T06:12:29;8.57;;;6.10;;
77466;SDS011;66564;42.482;25.548;2023-04-23T06:14:55;12.18;;;5.93;;
77466;SDS011;66564;42.482;25.548;2023-04-23T06:17:20;11.10;;;5.22;;
77466;SDS011;66564;42.482;25.548;2023-04-23T06:19:46;8.68;;;4.38;;
77466;SDS011;66564;42.482;25.548;2023-04-23T06:22:11;8.38;;;3.83;;
77466;SDS011;66564;42.482;25.548;2023-04-23T06:24:37;11.70;;;5.70;;
77466;SDS011;66564;42.482;25.548;2023-04-23T06:27:02;12.90;;;5.15;;
77466;SDS011;66564;42.482;25.548;2023-04-23T06:29:28;9.05;;;4.85;;
77466;SDS011;66564;42.482;25.548;2023-04-23T06:31:54;9.45;;;5.22;;
77466;SDS011;66564;42.482;25.548;2023-04-23T06:34:20;23.67;;;6.32;;
77466;SDS011;66564;42.482;25.548;2023-04-23T06:36:46;17.40;;;4.57;;
77466;SDS011;66564;42.482;25.548;2023-04-23T06:39:11;10.63;;;4.55;;
77466;SDS011;66564;42.482;25.548;2023-04-23T06:41:37;6.63;;;4.40;;
77466;SDS011;66564;42.482;25.548;2023-04-23T06:44:03;9.88;;;4.60;;
77466;SDS011;66564;42.482;25.548;2023-04-23T06:46:33;21.00;;;5.00;;
77466;SDS011;66564;42.482;25.548;2023-04-23T06:48:59;11.15;;;4.72;;
77466;SDS011;66564;42.482;25.548;2023-04-23T06:51:24;8.02;;;4.40;;
77466;SDS011;66564;42.482;25.548;2023-04-23T06:53:51;8.23;;;4.28;;
77466;SDS011;66564;42.482;25.548;2023-04-23T06:56:17;11.23;;;4.97;;
77466;SDS011;66564;42.482;25.548;2023-04-23T06:58:43;10.20;;;5.05;;
77466;SDS011;66564;42.482;25.548;2023-04-23T07:01:08;8.07;;;4.78;;
77466;SDS011;66564;42.482;25.548;2023-04-23T07:03:35;14.15;;;5.03;;
77466;SDS011;66564;42.482;25.548;2023-04-23T07:06:01;9.45;;;5.30;;
77466;SDS011;66564;42.482;25.548;2023-04-23T07:08:27;11.82;;;4.55;;
77466;SDS011;66564;42.482;25.548;2023-04-23T07:10:52;11.88;;;5.00;;
77466;SDS011;66564;42.482;25.548;2023-04-23T07:13:18;12.02;;;5.00;;
77466;SDS011;66564;42.482;25.548;2023-04-23T07:15:44;11.50;;;4.95;;
77466;SDS011;66564;42.482;25.548;2023-04-23T07:18:10;6.20;;;4.28;;
77466;SDS011;66564;42.482;25.548;2023-04-23T07:20:36;10.68;;;5.43;;
77466;SDS011;66564;42.482;25.548;2023-04-23T07:23:02;11.73;;;4.68;;
77466;SDS011;66564;42.482;25.548;2023-04-23T07:25:28;7.38;;;4.45;;
77466;SDS011;66564;42.482;25.548;2023-04-23T07:27:55;16.05;;;5.00;;
77466;SDS011;66564;42.482;25.548;2023-04-23T07:30:21;18.65;;;7.15;;
77466;SDS011;66564;42.482;25.548;2023-04-23T07:32:47;12.48;;;4.78;;
77466;SDS011;66564;42.482;25.548;2023-04-23T07:35:13;10.55;;;5.07;;
77466;SDS011;66564;42.482;25.548;2023-04-23T07:37:38;7.20;;;4.90;;
77466;SDS011;66564;42.482;25.548;2023-04-23T07:40:04;12.60;;;5.43;;
77466;SDS011;66564;42.482;25.548;2023-04-23T07:42:32;16.85;;;5.05;;
77466;SDS011;66564;42.482;25.548;2023-04-23T07:44:58;11.93;;;5.32;;
77466;SDS011;66564;42.482;25.548;2023-04-23T07:47:23;10.95;;;4.75;;
77466;SDS011;66564;42.482;25.548;2023-04-23T07:49:49;9.88;;;5.50;;
77466;SDS011;66564;42.482;25.548;2023-04-23T07:52:15;14.63;;;6.70;;
77466;SDS011;66564;42.482;25.548;2023-04-23T07:54:41;10.30;;;4.82;;
77466;SDS011;66564;42.482;25.548;2023-04-23T07:57:07;15.15;;;5.60;;
77466;SDS011;66564;42.482;25.548;2023-04-23T07:59:32;8.15;;;5.10;;
77466;SDS011;66564;42.482;25.548;2023-04-23T08:01:58;7.32;;;4.75;;
77466;SDS011;66564;42.482;25.548;2023-04-23T08:04:24;13.98;;;5.20;;
77466;SDS011;66564;42.482;25.548;2023-04-23T08:06:49;7.97;;;4.63;;
77466;SDS011;66564;42.482;25.548;2023-04-23T08:09:15;9.05;;;5.03;;
77466;SDS011;66564;42.482;25.548;2023-04-23T08:11:41;35.20;;;6.65;;
77466;SDS011;66564;42.482;25.548;2023-04-23T08:14:06;12.93;;;5.50;;
77466;SDS011;66564;42.482;25.548;2023-04-23T08:16:32;9.45;;;5.47;;
77466;SDS011;66564;42.482;25.548;2023-04-23T08:18:57;8.50;;;4.78;;
77466;SDS011;66564;42.482;25.548;2023-04-23T08:21:23;8.38;;;4.75;;
77466;SDS011;66564;42.482;25.548;2023-04-23T08:23:50;11.50;;;6.18;;
77466;SDS011;66564;42.482;25.548;2023-04-23T08:26:16;9.02;;;5.10;;
77466;SDS011;66564;42.482;25.548;2023-04-23T08:28:42;9.75;;;4.97;;
77466;SDS011;66564;42.482;25.548;2023-04-23T08:31:07;50.42;;;7.28;;
77466;SDS011;66564;42.482;25.548;2023-04-23T08:33:33;14.45;;;4.50;;
77466;SDS011;66564;42.482;25.548;2023-04-23T08:35:59;6.47;;;4.75;;
77466;SDS011;66564;42.482;25.548;2023-04-23T08:38:25;12.93;;;5.03;;
77466;SDS011;66564;42.482;25.548;2023-04-23T08:40:52;8.73;;;4.70;;
77466;SDS011;66564;42.482;25.548;2023-04-23T08:43:23;13.65;;;5.18;;
77466;SDS011;66564;42.482;25.548;2023-04-23T08:45:56;11.40;;;4.88;;
77466;SDS011;66564;42.482;25.548;2023-04-23T08:48:26;9.82;;;5.32;;
77466;SDS011;66564;42.482;25.548;2023-04-23T08:50:53;14.52;;;5.45;;
77466;SDS011;66564;42.482;25.548;2023-04-23T08:53:20;11.27;;;5.07;;
77466;SDS011;66564;42.482;25.548;2023-04-23T08:55:51;11.63;;;4.72;;
77466;SDS011;66564;42.482;25.548;2023-04-23T08:58:20;10.45;;;4.90;;
77466;SDS011;66564;42.482;25.548;2023-04-23T09:00:47;13.45;;;5.30;;
77466;SDS011;66564;42.482;25.548;2023-04-23T09:03:14;12.52;;;4.90;;
77466;SDS011;66564;42.482;25.548;2023-04-23T09:05:40;9.75;;;4.88;;
77466;SDS011;66564;42.482;25.548;2023-04-23T09:08:06;21.75;;;4.65;;
77466;SDS011;66564;42.482;25.548;2023-04-23T09:10:32;13.30;;;5.15;;
77466;SDS011;66564;42.482;25.548;2023-04-23T09:13:01;10.10;;;4.80;;
77466;SDS011;66564;42.482;25.548;2023-04-23T09:15:27;10.70;;;4.55;;
77466;SDS011;66564;42.482;25.548;2023-04-23T09:17:52;8.60;;;5.30;;
77466;SDS011;66564;42.482;25.548;2023-04-23T09:20:18;17.42;;;5.47;;
77466;SDS011;66564;42.482;25.548;2023-04-23T09:22:44;14.43;;;5.03;;
77466;SDS011;66564;42.482;25.548;2023-04-23T09:25:14;10.13;;;4.43;;
77466;SDS011;66564;42.482;25.548;2023-04-23T09:27:42;9.13;;;4.55;;
77466;SDS011;66564;42.482;25.548;2023-04-23T09:30:09;14.35;;;4.50;;
77466;SDS011;66564;42.482;25.548;2023-04-23T09:32:37;9.18;;;4.72;;
77466;SDS011;66564;42.482;25.548;2023-04-23T09:35:05;8.32;;;4.65;;
77466;SDS011;66564;42.482;25.548;2023-04-23T09:37:35;10.38;;;4.50;;
77466;SDS011;66564;42.482;25.548;2023-04-23T09:40:02;10.40;;;4.88;;
77466;SDS011;66564;42.482;25.548;2023-04-23T09:42:30;7.70;;;4.32;;
77466;SDS011;66564;42.482;25.548;2023-04-23T09:44:59;10.02;;;5.00;;
77466;SDS011;66564;42.482;25.548;2023-04-23T09:47:30;10.30;;;4.55;;
77466;SDS011;66564;42.482;25.548;2023-04-23T09:52:23;11.20;;;4.38;;
77466;SDS011;66564;42.482;25.548;2023-04-23T09:54:48;9.18;;;4.25;;
77466;SDS011;66564;42.482;25.548;2023-04-23T09:57:14;10.43;;;4.88;;
77466;SDS011;66564;42.482;25.548;2023-04-23T09:59:40;8.32;;;4.38;;
77466;SDS011;66564;42.482;25.548;2023-04-23T10:02:06;12.32;;;4.45;;
77466;SDS011;66564;42.482;25.548;2023-04-23T10:04:33;16.67;;;4.88;;
77466;SDS011;66564;42.482;25.548;2023-04-23T10:07:03;7.30;;;4.10;;
77466;SDS011;66564;42.482;25.548;2023-04-23T10:09:32;6.18;;;4.43;;
77466;SDS011;66564;42.482;25.548;2023-04-23T10:11:59;8.75;;;4.00;;
77466;SDS011;66564;42.482;25.548;2023-04-23T10:14:26;9.60;;;4.78;;
77466;SDS011;66564;42.482;25.548;2023-04-23T10:17:02;9.52;;;4.30;;
77466;SDS011;66564;42.482;25.548;2023-04-23T10:19:29;11.63;;;4.75;;
77466;SDS011;66564;42.482;25.548;2023-04-23T10:21:59;9.63;;;4.65;;
77466;SDS011;66564;42.482;25.548;2023-04-23T10:24:32;10.38;;;4.50;;
77466;SDS011;66564;42.482;25.548;2023-04-23T10:27:00;8.75;;;3.80;;
77466;SDS011;66564;42.482;25.548;2023-04-23T10:29:32;14.95;;;4.50;;
77466;SDS011;66564;42.482;25.548;2023-04-23T10:32:03;7.82;;;4.70;;
77466;SDS011;66564;42.482;25.548;2023-04-23T10:34:30;7.35;;;3.88;;
77466;SDS011;66564;42.482;25.548;2023-04-23T10:36:57;9.68;;;3.90;;
77466;SDS011;66564;42.482;25.548;2023-04-23T10:39:25;9.63;;;4.53;;
77466;SDS011;66564;42.482;25.548;2023-04-23T10:41:52;9.68;;;4.15;;
77466;SDS011;66564;42.482;25.548;2023-04-23T10:44:19;7.20;;;4.00;;
77466;SDS011;66564;42.482;25.548;2023-04-23T10:46:50;9.43;;;4.10;;
77466;SDS011;66564;42.482;25.548;2023-04-23T10:49:17;9.43;;;4.28;;
77466;SDS011;66564;42.482;25.548;2023-04-23T10:51:46;7.22;;;4.28;;
77466;SDS011;66564;42.482;25.548;2023-04-23T10:54:14;7.25;;;4.35;;
77466;SDS011;66564;42.482;25.548;2023-04-23T10:56:41;10.18;;;4.07;;
77466;SDS011;66564;42.482;25.548;2023-04-23T10:59:07;9.93;;;4.65;;
77466;SDS011;66564;42.482;25.548;2023-04-23T11:01:46;8.27;;;4.22;;
77466;SDS011;66564;42.482;25.548;2023-04-23T11:04:20;8.32;;;3.95;;
77466;SDS011;66564;42.482;25.548;2023-04-23T11:14:50;8.90;;;4.00;;
77466;SDS011;66564;42.482;25.548;2023-04-23T11:17:23;15.70;;;4.80;;
77466;SDS011;66564;42.482;25.548;2023-04-23T11:25:13;7.07;;;4.20;;
77466;SDS011;66564;42.482;25.548;2023-04-23T11:27:43;8.27;;;3.90;;
77466;SDS011;66564;42.482;25.548;2023-04-23T11:30:10;7.28;;;3.92;;
77466;SDS011;66564;42.482;25.548;2023-04-23T11:32:38;6.80;;;4.28;;
77466;SDS011;66564;42.482;25.548;2023-04-23T11:35:05;5.63;;;3.50;;
77466;SDS011;66564;42.482;25.548;2023-04-23T11:37:37;7.75;;;4.00;;
77466;SDS011;66564;42.482;25.548;2023-04-23T11:40:05;5.95;;;4.20;;
77466;SDS011;66564;42.482;25.548;2023-04-23T11:42:39;7.07;;;4.18;;
77466;SDS011;66564;42.482;25.548;2023-04-23T11:45:13;7.13;;;4.05;;
77466;SDS011;66564;42.482;25.548;2023-04-23T11:47:43;12.27;;;4.63;;
77466;SDS011;66564;42.482;25.548;2023-04-23T11:50:10;12.70;;;4.60;;
77466;SDS011;66564;42.482;25.548;2023-04-23T11:52:42;9.10;;;4.35;;
77466;SDS011;66564;42.482;25.548;2023-04-23T11:55:08;8.45;;;4.20;;
77466;SDS011;66564;42.482;25.548;2023-04-23T11:57:44;6.50;;;3.90;;
77466;SDS011;66564;42.482;25.548;2023-04-23T12:02:37;8.95;;;3.65;;
77466;SDS011;66564;42.482;25.548;2023-04-23T12:07:38;6.93;;;4.22;;
77466;SDS011;66564;42.482;25.548;2023-04-23T12:10:04;8.25;;;4.10;;
77466;SDS011;66564;42.482;25.548;2023-04-23T12:12:36;8.82;;;4.10;;
77466;SDS011;66564;42.482;25.548;2023-04-23T12:15:04;12.10;;;4.13;;
77466;SDS011;66564;42.482;25.548;2023-04-23T12:17:31;7.80;;;3.95;;
77466;SDS011;66564;42.482;25.548;2023-04-23T12:19:56;6.63;;;3.65;;
77466;SDS011;66564;42.482;25.548;2023-04-23T12:22:25;6.03;;;4.03;;
77466;SDS011;66564;42.482;25.548;2023-04-23T12:24:52;6.50;;;3.88;;
77466;SDS011;66564;42.482;25.548;2023-04-23T12:27:19;6.85;;;3.80;;
77466;SDS011;66564;42.482;25.548;2023-04-23T12:29:46;7.25;;;4.13;;
77466;SDS011;66564;42.482;25.548;2023-04-23T12:32:12;10.85;;;3.75;;
77466;SDS011;66564;42.482;25.548;2023-04-23T12:34:50;8.68;;;4.22;;
77466;SDS011;66564;42.482;25.548;2023-04-23T12:37:17;7.78;;;3.58;;
77466;SDS011;66564;42.482;25.548;2023-04-23T12:39:42;11.30;;;4.30;;
77466;SDS011;66564;42.482;25.548;2023-04-23T12:42:08;7.15;;;3.75;;
77466;SDS011;66564;42.482;25.548;2023-04-23T12:44:34;6.22;;;4.00;;
77466;SDS011;66564;42.482;25.548;2023-04-23T12:47:02;14.48;;;4.03;;
77466;SDS011;66564;42.482;25.548;2023-04-23T12:49:29;8.23;;;3.92;;
77466;SDS011;66564;42.482;25.548;2023-04-23T12:51:56;10.27;;;4.43;;
77466;SDS011;66564;42.482;25.548;2023-04-23T12:54:35;9.60;;;3.80;;
77466;SDS011;66564;42.482;25.548;2023-04-23T12:57:06;6.13;;;3.88;;
77466;SDS011;66564;42.482;25.548;2023-04-23T12:59:35;8.38;;;4.63;;
77466;SDS011;66564;42.482;25.548;2023-04-23T13:02:01;5.90;;;4.15;;
77466;SDS011;66564;42.482;25.548;2023-04-23T13:04:28;6.25;;;3.42;;
77466;SDS011;66564;42.482;25.548;2023-04-23T13:06:55;5.50;;;3.72;;
77466;SDS011;66564;42.482;25.548;2023-04-23T13:09:21;7.95;;;4.25;;
77466;SDS011;66564;42.482;25.548;2023-04-23T13:11:48;5.28;;;3.70;;
77466;SDS011;66564;42.482;25.548;2023-04-23T13:14:14;6.65;;;4.75;;
77466;SDS011;66564;42.482;25.548;2023-04-23T13:16:41;5.80;;;4.35;;
77466;SDS011;66564;42.482;25.548;2023-04-23T13:19:09;5.88;;;4.38;;
77466;SDS011;66564;42.482;25.548;2023-04-23T13:21:37;8.93;;;4.40;;
77466;SDS011;66564;42.482;25.548;2023-04-23T13:24:02;8.18;;;4.55;;
77466;SDS011;66564;42.482;25.548;2023-04-23T13:26:28;6.18;;;4.30;;
77466;SDS011;66564;42.482;25.548;2023-04-23T13:28:56;7.00;;;4.03;;
77466;SDS011;66564;42.482;25.548;2023-04-23T13:31:22;7.57;;;3.92;;
77466;SDS011;66564;42.482;25.548;2023-04-23T13:33:47;4.95;;;4.00;;
77466;SDS011;66564;42.482;25.548;2023-04-23T13:36:13;8.73;;;4.55;;
77466;SDS011;66564;42.482;25.548;2023-04-23T13:38:38;8.15;;;4.10;;
77466;SDS011;66564;42.482;25.548;2023-04-23T13:41:04;8.07;;;4.00;;
77466;SDS011;66564;42.482;25.548;2023-04-23T13:43:30;7.97;;;4.00;;
77466;SDS011;66564;42.482;25.548;2023-04-23T13:45:55;6.90;;;4.35;;
77466;SDS011;66564;42.482;25.548;2023-04-23T13:48:21;9.48;;;4.40;;
77466;SDS011;66564;42.482;25.548;2023-04-23T13:50:47;6.22;;;3.90;;
77466;SDS011;66564;42.482;25.548;2023-04-23T13:53:13;8.00;;;3.92;;
77466;SDS011;66564;42.482;25.548;2023-04-23T13:55:38;7.32;;;4.00;;
77466;SDS011;66564;42.482;25.548;2023-04-23T13:58:04;7.63;;;4.53;;
77466;SDS011;66564;42.482;25.548;2023-04-23T14:00:31;7.32;;;3.78;;
77466;SDS011;66564;42.482;25.548;2023-04-23T14:02:56;8.00;;;4.10;;
77466;SDS011;66564;42.482;25.548;2023-04-23T14:05:22;11.68;;;4.13;;
77466;SDS011;66564;42.482;25.548;2023-04-23T14:07:48;9.00;;;3.92;;
77466;SDS011;66564;42.482;25.548;2023-04-23T14:10:14;7.80;;;3.85;;
77466;SDS011;66564;42.482;25.548;2023-04-23T14:12:40;9.13;;;4.32;;
77466;SDS011;66564;42.482;25.548;2023-04-23T14:15:06;7.75;;;3.85;;
77466;SDS011;66564;42.482;25.548;2023-04-23T14:17:32;6.03;;;4.38;;
77466;SDS011;66564;42.482;25.548;2023-04-23T14:19:58;8.43;;;4.70;;
77466;SDS011;66564;42.482;25.548;2023-04-23T14:22:24;7.35;;;4.40;;
77466;SDS011;66564;42.482;25.548;2023-04-23T14:24:50;7.00;;;4.20;;
77466;SDS011;66564;42.482;25.548;2023-04-23T14:27:21;7.13;;;4.10;;
77466;SDS011;66564;42.482;25.548;2023-04-23T14:29:51;5.82;;;4.22;;
77466;SDS011;66564;42.482;25.548;2023-04-23T14:32:22;9.55;;;4.43;;
77466;SDS011;66564;42.482;25.548;2023-04-23T14:34:49;7.53;;;3.92;;
77466;SDS011;66564;42.482;25.548;2023-04-23T14:37:15;7.93;;;4.05;;
77466;SDS011;66564;42.482;25.548;2023-04-23T14:39:43;6.40;;;4.35;;
77466;SDS011;66564;42.482;25.548;2023-04-23T14:42:10;5.85;;;3.90;;
77466;SDS011;66564;42.482;25.548;2023-04-23T14:44:36;6.45;;;3.55;;